sensor_id;sensor_type;location;lat;lon;timestamp;P1;durP1;ratioP1;P2;durP2;ratioP2
76995;SDS011;65929;49.062;10.338;2023-05-10T00:00:50;1.80;;;1.23;;
76995;SDS011;65929;49.062;10.338;2023-05-10T00:01:51;1.83;;;1.50;;
76995;SDS011;65929;49.062;10.338;2023-05-10T00:02:52;1.85;;;1.48;;
76995;SDS011;65929;49.062;10.338;2023-05-10T00:03:53;2.30;;;1.33;;
76995;SDS011;65929;49.062;10.338;2023-05-10T00:04:54;2.83;;;1.50;;
76995;SDS011;65929;49.062;10.338;2023-05-10T00:05:55;2.90;;;1.42;;
76995;SDS011;65929;49.062;10.338;2023-05-10T00:06:57;1.67;;;1.30;;
76995;SDS011;65929;49.062;10.338;2023-05-10T00:07:58;1.73;;;1.30;;
76995;SDS011;65929;49.062;10.338;2023-05-10T00:08:59;1.70;;;1.35;;
76995;SDS011;65929;49.062;10.338;2023-05-10T00:10:01;1.80;;;1.33;;
76995;SDS011;65929;49.062;10.338;2023-05-10T00:12:06;3.33;;;1.60;;
76995;SDS011;65929;49.062;10.338;2023-05-10T00:13:06;1.65;;;1.30;;
76995;SDS011;65929;49.062;10.338;2023-05-10T00:14:07;1.95;;;1.35;;
76995;SDS011;65929;49.062;10.338;2023-05-10T00:15:09;2.20;;;1.52;;
76995;SDS011;65929;49.062;10.338;2023-05-10T00:16:10;1.52;;;1.23;;
76995;SDS011;65929;49.062;10.338;2023-05-10T00:17:13;1.88;;;1.00;;
76995;SDS011;65929;49.062;10.338;2023-05-10T00:18:14;2.15;;;1.33;;
76995;SDS011;65929;49.062;10.338;2023-05-10T00:19:15;1.42;;;1.17;;
76995;SDS011;65929;49.062;10.338;2023-05-10T00:20:16;1.30;;;0.95;;
76995;SDS011;65929;49.062;10.338;2023-05-10T00:22:20;2.67;;;1.38;;
76995;SDS011;65929;49.062;10.338;2023-05-10T00:23:21;1.70;;;0.95;;
76995;SDS011;65929;49.062;10.338;2023-05-10T00:24:21;1.55;;;0.80;;
76995;SDS011;65929;49.062;10.338;2023-05-10T00:25:24;2.25;;;0.82;;
76995;SDS011;65929;49.062;10.338;2023-05-10T00:26:25;1.30;;;0.80;;
76995;SDS011;65929;49.062;10.338;2023-05-10T00:27:26;1.38;;;0.80;;
76995;SDS011;65929;49.062;10.338;2023-05-10T00:28:27;1.25;;;0.85;;
76995;SDS011;65929;49.062;10.338;2023-05-10T00:29:28;0.93;;;0.68;;
76995;SDS011;65929;49.062;10.338;2023-05-10T00:30:29;1.08;;;0.70;;
76995;SDS011;65929;49.062;10.338;2023-05-10T00:31:30;0.75;;;0.57;;
76995;SDS011;65929;49.062;10.338;2023-05-10T00:32:31;0.63;;;0.60;;
76995;SDS011;65929;49.062;10.338;2023-05-10T00:33:32;0.68;;;0.50;;
76995;SDS011;65929;49.062;10.338;2023-05-10T00:34:33;0.38;;;0.38;;
76995;SDS011;65929;49.062;10.338;2023-05-10T00:35:34;0.50;;;0.40;;
76995;SDS011;65929;49.062;10.338;2023-05-10T00:36:36;0.40;;;0.40;;
76995;SDS011;65929;49.062;10.338;2023-05-10T00:37:37;1.65;;;0.50;;
76995;SDS011;65929;49.062;10.338;2023-05-10T00:38:37;0.43;;;0.40;;
76995;SDS011;65929;49.062;10.338;2023-05-10T00:39:38;1.27;;;0.47;;
76995;SDS011;65929;49.062;10.338;2023-05-10T00:40:41;0.65;;;0.50;;
76995;SDS011;65929;49.062;10.338;2023-05-10T00:41:42;0.85;;;0.60;;
76995;SDS011;65929;49.062;10.338;2023-05-10T00:42:43;0.25;;;0.25;;
76995;SDS011;65929;49.062;10.338;2023-05-10T00:43:44;1.05;;;0.40;;
76995;SDS011;65929;49.062;10.338;2023-05-10T00:44:44;0.40;;;0.40;;
76995;SDS011;65929;49.062;10.338;2023-05-10T00:45:46;0.65;;;0.30;;
76995;SDS011;65929;49.062;10.338;2023-05-10T00:46:48;0.35;;;0.35;;
76995;SDS011;65929;49.062;10.338;2023-05-10T00:47:49;0.95;;;0.55;;
76995;SDS011;65929;49.062;10.338;2023-05-10T00:48:52;0.38;;;0.38;;
76995;SDS011;65929;49.062;10.338;2023-05-10T00:49:53;1.42;;;0.30;;
76995;SDS011;65929;49.062;10.338;2023-05-10T00:50:55;2.83;;;0.60;;
76995;SDS011;65929;49.062;10.338;2023-05-10T00:51:56;0.40;;;0.40;;
76995;SDS011;65929;49.062;10.338;2023-05-10T00:52:57;0.77;;;0.50;;
76995;SDS011;65929;49.062;10.338;2023-05-10T00:53:59;0.80;;;0.40;;
76995;SDS011;65929;49.062;10.338;2023-05-10T00:55:01;0.47;;;0.47;;
76995;SDS011;65929;49.062;10.338;2023-05-10T00:56:04;0.50;;;0.40;;
76995;SDS011;65929;49.062;10.338;2023-05-10T00:57:06;0.40;;;0.30;;
76995;SDS011;65929;49.062;10.338;2023-05-10T00:58:07;0.40;;;0.40;;
76995;SDS011;65929;49.062;10.338;2023-05-10T00:59:09;0.57;;;0.30;;
76995;SDS011;65929;49.062;10.338;2023-05-10T01:00:10;0.50;;;0.40;;
76995;SDS011;65929;49.062;10.338;2023-05-10T01:01:17;0.50;;;0.50;;
76995;SDS011;65929;49.062;10.338;2023-05-10T01:02:20;1.40;;;0.30;;
76995;SDS011;65929;49.062;10.338;2023-05-10T01:03:21;1.02;;;0.45;;
76995;SDS011;65929;49.062;10.338;2023-05-10T01:04:22;0.40;;;0.40;;
76995;SDS011;65929;49.062;10.338;2023-05-10T01:05:25;0.98;;;0.40;;
76995;SDS011;65929;49.062;10.338;2023-05-10T01:06:27;0.60;;;0.50;;
76995;SDS011;65929;49.062;10.338;2023-05-10T01:07:28;1.75;;;0.35;;
76995;SDS011;65929;49.062;10.338;2023-05-10T01:08:29;0.88;;;0.40;;
76995;SDS011;65929;49.062;10.338;2023-05-10T01:09:30;0.43;;;0.30;;
76995;SDS011;65929;49.062;10.338;2023-05-10T01:10:35;1.20;;;0.40;;
76995;SDS011;65929;49.062;10.338;2023-05-10T01:11:38;0.50;;;0.40;;
76995;SDS011;65929;49.062;10.338;2023-05-10T01:12:40;0.55;;;0.30;;
76995;SDS011;65929;49.062;10.338;2023-05-10T01:13:43;1.02;;;0.43;;
76995;SDS011;65929;49.062;10.338;2023-05-10T01:14:49;0.38;;;0.30;;
76995;SDS011;65929;49.062;10.338;2023-05-10T01:15:50;0.40;;;0.40;;
76995;SDS011;65929;49.062;10.338;2023-05-10T01:16:51;0.35;;;0.30;;
76995;SDS011;65929;49.062;10.338;2023-05-10T01:17:53;3.67;;;0.52;;
76995;SDS011;65929;49.062;10.338;2023-05-10T01:18:55;0.70;;;0.40;;
76995;SDS011;65929;49.062;10.338;2023-05-10T01:19:56;0.40;;;0.38;;
76995;SDS011;65929;49.062;10.338;2023-05-10T01:21:00;1.60;;;0.70;;
76995;SDS011;65929;49.062;10.338;2023-05-10T01:22:12;0.55;;;0.50;;
76995;SDS011;65929;49.062;10.338;2023-05-10T01:25:07;0.82;;;0.30;;
76995;SDS011;65929;49.062;10.338;2023-05-10T01:26:26;0.68;;;0.60;;
76995;SDS011;65929;49.062;10.338;2023-05-10T01:31:18;0.73;;;0.60;;
76995;SDS011;65929;49.062;10.338;2023-05-10T01:32:32;0.88;;;0.50;;
76995;SDS011;65929;49.062;10.338;2023-05-10T01:33:41;0.50;;;0.40;;
76995;SDS011;65929;49.062;10.338;2023-05-10T01:34:48;0.43;;;0.43;;
76995;SDS011;65929;49.062;10.338;2023-05-10T01:36:05;0.73;;;0.52;;
76995;SDS011;65929;49.062;10.338;2023-05-10T01:37:13;0.90;;;0.68;;
76995;SDS011;65929;49.062;10.338;2023-05-10T01:38:20;0.60;;;0.40;;
76995;SDS011;65929;49.062;10.338;2023-05-10T01:39:32;0.73;;;0.50;;
76995;SDS011;65929;49.062;10.338;2023-05-10T01:40:39;0.60;;;0.47;;
76995;SDS011;65929;49.062;10.338;2023-05-10T01:41:49;0.50;;;0.50;;
76995;SDS011;65929;49.062;10.338;2023-05-10T01:42:56;0.70;;;0.50;;
76995;SDS011;65929;49.062;10.338;2023-05-10T01:44:08;0.52;;;0.50;;
76995;SDS011;65929;49.062;10.338;2023-05-10T01:45:18;0.73;;;0.50;;
76995;SDS011;65929;49.062;10.338;2023-05-10T01:46:27;0.50;;;0.50;;
76995;SDS011;65929;49.062;10.338;2023-05-10T01:47:35;0.95;;;0.52;;
76995;SDS011;65929;49.062;10.338;2023-05-10T01:48:42;0.75;;;0.50;;
76995;SDS011;65929;49.062;10.338;2023-05-10T01:49:49;0.73;;;0.60;;
76995;SDS011;65929;49.062;10.338;2023-05-10T01:50:52;0.55;;;0.43;;
76995;SDS011;65929;49.062;10.338;2023-05-10T01:51:58;1.45;;;0.50;;
76995;SDS011;65929;49.062;10.338;2023-05-10T01:53:01;0.40;;;0.40;;
76995;SDS011;65929;49.062;10.338;2023-05-10T01:54:03;0.63;;;0.50;;
76995;SDS011;65929;49.062;10.338;2023-05-10T01:55:06;0.60;;;0.40;;
76995;SDS011;65929;49.062;10.338;2023-05-10T01:56:11;0.65;;;0.60;;
76995;SDS011;65929;49.062;10.338;2023-05-10T01:57:14;0.50;;;0.40;;
76995;SDS011;65929;49.062;10.338;2023-05-10T01:58:21;0.30;;;0.30;;
76995;SDS011;65929;49.062;10.338;2023-05-10T02:00:28;0.70;;;0.50;;
76995;SDS011;65929;49.062;10.338;2023-05-10T02:01:31;0.90;;;0.50;;
76995;SDS011;65929;49.062;10.338;2023-05-10T02:02:35;0.57;;;0.52;;
76995;SDS011;65929;49.062;10.338;2023-05-10T02:03:39;0.65;;;0.50;;
76995;SDS011;65929;49.062;10.338;2023-05-10T02:04:43;0.60;;;0.50;;
76995;SDS011;65929;49.062;10.338;2023-05-10T02:05:46;0.93;;;0.57;;
76995;SDS011;65929;49.062;10.338;2023-05-10T02:06:49;0.75;;;0.50;;
76995;SDS011;65929;49.062;10.338;2023-05-10T02:07:53;0.47;;;0.47;;
76995;SDS011;65929;49.062;10.338;2023-05-10T02:08:55;1.17;;;0.50;;
76995;SDS011;65929;49.062;10.338;2023-05-10T02:09:57;0.52;;;0.40;;
76995;SDS011;65929;49.062;10.338;2023-05-10T02:10:59;0.60;;;0.30;;
76995;SDS011;65929;49.062;10.338;2023-05-10T02:12:01;0.60;;;0.38;;
76995;SDS011;65929;49.062;10.338;2023-05-10T02:13:04;0.40;;;0.40;;
76995;SDS011;65929;49.062;10.338;2023-05-10T02:14:07;0.70;;;0.50;;
76995;SDS011;65929;49.062;10.338;2023-05-10T02:15:12;1.50;;;0.40;;
76995;SDS011;65929;49.062;10.338;2023-05-10T02:16:17;0.30;;;0.30;;
76995;SDS011;65929;49.062;10.338;2023-05-10T02:17:21;0.50;;;0.40;;
76995;SDS011;65929;49.062;10.338;2023-05-10T02:18:26;0.60;;;0.50;;
76995;SDS011;65929;49.062;10.338;2023-05-10T02:19:28;1.15;;;0.45;;
76995;SDS011;65929;49.062;10.338;2023-05-10T02:20:30;0.50;;;0.50;;
76995;SDS011;65929;49.062;10.338;2023-05-10T02:21:32;0.82;;;0.50;;
76995;SDS011;65929;49.062;10.338;2023-05-10T02:22:35;0.70;;;0.20;;
76995;SDS011;65929;49.062;10.338;2023-05-10T02:23:37;0.30;;;0.30;;
76995;SDS011;65929;49.062;10.338;2023-05-10T02:24:39;0.75;;;0.43;;
76995;SDS011;65929;49.062;10.338;2023-05-10T02:25:41;0.28;;;0.28;;
76995;SDS011;65929;49.062;10.338;2023-05-10T02:26:44;0.32;;;0.30;;
76995;SDS011;65929;49.062;10.338;2023-05-10T02:27:45;0.28;;;0.28;;
76995;SDS011;65929;49.062;10.338;2023-05-10T02:28:47;0.55;;;0.45;;
76995;SDS011;65929;49.062;10.338;2023-05-10T02:29:50;0.50;;;0.40;;
76995;SDS011;65929;49.062;10.338;2023-05-10T02:30:52;0.40;;;0.30;;
76995;SDS011;65929;49.062;10.338;2023-05-10T02:31:54;0.68;;;0.40;;
76995;SDS011;65929;49.062;10.338;2023-05-10T02:32:57;0.40;;;0.40;;
76995;SDS011;65929;49.062;10.338;2023-05-10T02:34:00;0.38;;;0.38;;
76995;SDS011;65929;49.062;10.338;2023-05-10T02:35:03;0.30;;;0.30;;
76995;SDS011;65929;49.062;10.338;2023-05-10T02:36:05;0.35;;;0.28;;
76995;SDS011;65929;49.062;10.338;2023-05-10T02:37:08;0.40;;;0.40;;
76995;SDS011;65929;49.062;10.338;2023-05-10T02:38:11;0.70;;;0.50;;
76995;SDS011;65929;49.062;10.338;2023-05-10T02:39:13;0.47;;;0.30;;
76995;SDS011;65929;49.062;10.338;2023-05-10T02:40:15;0.30;;;0.30;;
76995;SDS011;65929;49.062;10.338;2023-05-10T02:41:18;0.82;;;0.40;;
76995;SDS011;65929;49.062;10.338;2023-05-10T02:42:22;0.32;;;0.32;;
76995;SDS011;65929;49.062;10.338;2023-05-10T02:44:28;0.20;;;0.20;;
76995;SDS011;65929;49.062;10.338;2023-05-10T02:45:31;0.88;;;0.60;;
76995;SDS011;65929;49.062;10.338;2023-05-10T02:46:34;0.28;;;0.20;;
76995;SDS011;65929;49.062;10.338;2023-05-10T02:47:37;0.73;;;0.30;;
76995;SDS011;65929;49.062;10.338;2023-05-10T02:48:38;0.63;;;0.40;;
76995;SDS011;65929;49.062;10.338;2023-05-10T02:49:40;0.35;;;0.35;;
76995;SDS011;65929;49.062;10.338;2023-05-10T02:50:42;0.50;;;0.30;;
76995;SDS011;65929;49.062;10.338;2023-05-10T02:51:47;0.40;;;0.40;;
76995;SDS011;65929;49.062;10.338;2023-05-10T02:52:51;0.30;;;0.30;;
76995;SDS011;65929;49.062;10.338;2023-05-10T02:53:57;0.55;;;0.30;;
76995;SDS011;65929;49.062;10.338;2023-05-10T02:55:06;1.35;;;0.57;;
76995;SDS011;65929;49.062;10.338;2023-05-10T02:56:11;0.30;;;0.30;;
76995;SDS011;65929;49.062;10.338;2023-05-10T02:57:15;0.70;;;0.38;;
76995;SDS011;65929;49.062;10.338;2023-05-10T02:59:20;0.40;;;0.40;;
76995;SDS011;65929;49.062;10.338;2023-05-10T03:00:21;0.40;;;0.30;;
76995;SDS011;65929;49.062;10.338;2023-05-10T03:01:24;0.40;;;0.40;;
76995;SDS011;65929;49.062;10.338;2023-05-10T03:02:25;0.50;;;0.40;;
76995;SDS011;65929;49.062;10.338;2023-05-10T03:03:26;0.40;;;0.32;;
76995;SDS011;65929;49.062;10.338;2023-05-10T03:04:27;0.75;;;0.50;;
76995;SDS011;65929;49.062;10.338;2023-05-10T03:05:30;0.50;;;0.50;;
76995;SDS011;65929;49.062;10.338;2023-05-10T03:06:31;0.85;;;0.57;;
76995;SDS011;65929;49.062;10.338;2023-05-10T03:07:32;0.50;;;0.50;;
76995;SDS011;65929;49.062;10.338;2023-05-10T03:08:33;0.70;;;0.70;;
76995;SDS011;65929;49.062;10.338;2023-05-10T03:09:37;0.60;;;0.60;;
76995;SDS011;65929;49.062;10.338;2023-05-10T03:10:40;1.25;;;0.55;;
76995;SDS011;65929;49.062;10.338;2023-05-10T03:11:50;1.50;;;0.55;;
76995;SDS011;65929;49.062;10.338;2023-05-10T03:13:01;1.75;;;0.70;;
76995;SDS011;65929;49.062;10.338;2023-05-10T03:14:13;0.70;;;0.60;;
76995;SDS011;65929;49.062;10.338;2023-05-10T03:15:25;0.90;;;0.60;;
76995;SDS011;65929;49.062;10.338;2023-05-10T03:16:35;0.80;;;0.80;;
76995;SDS011;65929;49.062;10.338;2023-05-10T03:17:45;0.90;;;0.70;;
76995;SDS011;65929;49.062;10.338;2023-05-10T03:18:50;1.10;;;0.90;;
76995;SDS011;65929;49.062;10.338;2023-05-10T03:19:57;1.67;;;0.60;;
76995;SDS011;65929;49.062;10.338;2023-05-10T03:21:04;2.15;;;0.80;;
76995;SDS011;65929;49.062;10.338;2023-05-10T03:22:12;1.52;;;0.75;;
76995;SDS011;65929;49.062;10.338;2023-05-10T03:23:20;1.20;;;1.00;;
76995;SDS011;65929;49.062;10.338;2023-05-10T03:24:25;1.52;;;0.80;;
76995;SDS011;65929;49.062;10.338;2023-05-10T03:25:28;0.77;;;0.77;;
76995;SDS011;65929;49.062;10.338;2023-05-10T03:26:31;0.80;;;0.80;;
76995;SDS011;65929;49.062;10.338;2023-05-10T03:27:33;0.93;;;0.80;;
76995;SDS011;65929;49.062;10.338;2023-05-10T03:28:35;1.50;;;0.88;;
76995;SDS011;65929;49.062;10.338;2023-05-10T03:29:37;0.82;;;0.80;;
76995;SDS011;65929;49.062;10.338;2023-05-10T03:30:39;1.00;;;0.90;;
76995;SDS011;65929;49.062;10.338;2023-05-10T03:31:41;1.23;;;1.13;;
76995;SDS011;65929;49.062;10.338;2023-05-10T03:32:42;0.82;;;0.82;;
76995;SDS011;65929;49.062;10.338;2023-05-10T03:33:46;1.52;;;1.10;;
76995;SDS011;65929;49.062;10.338;2023-05-10T03:34:48;1.00;;;0.90;;
76995;SDS011;65929;49.062;10.338;2023-05-10T03:35:49;0.80;;;0.70;;
76995;SDS011;65929;49.062;10.338;2023-05-10T03:36:51;1.98;;;0.85;;
76995;SDS011;65929;49.062;10.338;2023-05-10T03:37:52;1.13;;;0.90;;
76995;SDS011;65929;49.062;10.338;2023-05-10T03:38:53;0.98;;;0.80;;
76995;SDS011;65929;49.062;10.338;2023-05-10T03:39:54;1.95;;;1.02;;
76995;SDS011;65929;49.062;10.338;2023-05-10T03:40:55;1.30;;;1.00;;
76995;SDS011;65929;49.062;10.338;2023-05-10T03:41:56;1.00;;;0.80;;
76995;SDS011;65929;49.062;10.338;2023-05-10T03:42:57;1.48;;;0.90;;
76995;SDS011;65929;49.062;10.338;2023-05-10T03:43:58;0.82;;;0.80;;
76995;SDS011;65929;49.062;10.338;2023-05-10T03:44:59;1.15;;;1.00;;
76995;SDS011;65929;49.062;10.338;2023-05-10T03:46:01;1.33;;;1.00;;
76995;SDS011;65929;49.062;10.338;2023-05-10T03:47:02;1.13;;;0.90;;
76995;SDS011;65929;49.062;10.338;2023-05-10T03:48:03;1.35;;;1.00;;
76995;SDS011;65929;49.062;10.338;2023-05-10T03:49:04;0.88;;;0.85;;
76995;SDS011;65929;49.062;10.338;2023-05-10T03:50:06;1.00;;;0.88;;
76995;SDS011;65929;49.062;10.338;2023-05-10T03:51:07;0.90;;;0.90;;
76995;SDS011;65929;49.062;10.338;2023-05-10T03:52:10;1.20;;;1.02;;
76995;SDS011;65929;49.062;10.338;2023-05-10T03:53:11;1.33;;;1.02;;
76995;SDS011;65929;49.062;10.338;2023-05-10T03:54:12;1.15;;;1.05;;
76995;SDS011;65929;49.062;10.338;2023-05-10T03:55:13;0.93;;;0.88;;
76995;SDS011;65929;49.062;10.338;2023-05-10T03:56:14;2.17;;;0.90;;
76995;SDS011;65929;49.062;10.338;2023-05-10T03:57:15;1.73;;;1.20;;
76995;SDS011;65929;49.062;10.338;2023-05-10T03:58:16;1.20;;;1.10;;
76995;SDS011;65929;49.062;10.338;2023-05-10T03:59:18;1.48;;;1.00;;
76995;SDS011;65929;49.062;10.338;2023-05-10T04:00:19;1.30;;;1.08;;
76995;SDS011;65929;49.062;10.338;2023-05-10T04:01:20;2.40;;;1.30;;
76995;SDS011;65929;49.062;10.338;2023-05-10T04:02:21;1.35;;;1.23;;
76995;SDS011;65929;49.062;10.338;2023-05-10T04:03:22;1.17;;;0.80;;
76995;SDS011;65929;49.062;10.338;2023-05-10T04:04:23;2.90;;;1.25;;
76995;SDS011;65929;49.062;10.338;2023-05-10T04:05:24;2.00;;;1.23;;
76995;SDS011;65929;49.062;10.338;2023-05-10T04:06:25;1.92;;;1.30;;
76995;SDS011;65929;49.062;10.338;2023-05-10T04:07:27;3.72;;;1.25;;
76995;SDS011;65929;49.062;10.338;2023-05-10T04:08:29;1.40;;;1.30;;
76995;SDS011;65929;49.062;10.338;2023-05-10T04:09:30;1.02;;;0.93;;
76995;SDS011;65929;49.062;10.338;2023-05-10T04:10:31;2.10;;;1.50;;
76995;SDS011;65929;49.062;10.338;2023-05-10T04:11:32;1.40;;;1.20;;
76995;SDS011;65929;49.062;10.338;2023-05-10T04:12:33;1.58;;;1.00;;
76995;SDS011;65929;49.062;10.338;2023-05-10T04:13:34;1.95;;;1.13;;
76995;SDS011;65929;49.062;10.338;2023-05-10T04:14:35;1.52;;;1.08;;
76995;SDS011;65929;49.062;10.338;2023-05-10T04:15:37;1.50;;;1.35;;
76995;SDS011;65929;49.062;10.338;2023-05-10T04:16:38;1.75;;;1.25;;
76995;SDS011;65929;49.062;10.338;2023-05-10T04:17:39;1.30;;;1.20;;
76995;SDS011;65929;49.062;10.338;2023-05-10T04:18:41;1.55;;;1.00;;
76995;SDS011;65929;49.062;10.338;2023-05-10T04:19:42;2.35;;;1.20;;
76995;SDS011;65929;49.062;10.338;2023-05-10T04:20:43;1.55;;;0.98;;
76995;SDS011;65929;49.062;10.338;2023-05-10T04:21:44;2.33;;;1.17;;
76995;SDS011;65929;49.062;10.338;2023-05-10T04:22:46;2.30;;;1.02;;
76995;SDS011;65929;49.062;10.338;2023-05-10T04:23:47;1.95;;;1.27;;
76995;SDS011;65929;49.062;10.338;2023-05-10T04:24:48;1.50;;;1.00;;
76995;SDS011;65929;49.062;10.338;2023-05-10T04:25:49;1.15;;;0.95;;
76995;SDS011;65929;49.062;10.338;2023-05-10T04:26:50;1.35;;;1.23;;
76995;SDS011;65929;49.062;10.338;2023-05-10T04:27:51;1.48;;;1.00;;
76995;SDS011;65929;49.062;10.338;2023-05-10T04:28:52;1.40;;;1.17;;
76995;SDS011;65929;49.062;10.338;2023-05-10T04:29:53;1.55;;;1.20;;
76995;SDS011;65929;49.062;10.338;2023-05-10T04:31:00;1.02;;;0.80;;
76995;SDS011;65929;49.062;10.338;2023-05-10T04:32:01;2.53;;;1.15;;
76995;SDS011;65929;49.062;10.338;2023-05-10T04:33:03;1.58;;;1.38;;
76995;SDS011;65929;49.062;10.338;2023-05-10T04:34:04;1.48;;;1.02;;
76995;SDS011;65929;49.062;10.338;2023-05-10T04:35:05;1.70;;;1.30;;
76995;SDS011;65929;49.062;10.338;2023-05-10T04:36:07;1.33;;;1.10;;
76995;SDS011;65929;49.062;10.338;2023-05-10T04:37:08;2.15;;;1.50;;
76995;SDS011;65929;49.062;10.338;2023-05-10T04:38:10;1.10;;;0.95;;
76995;SDS011;65929;49.062;10.338;2023-05-10T04:39:11;1.92;;;1.65;;
76995;SDS011;65929;49.062;10.338;2023-05-10T04:40:13;1.30;;;1.20;;
76995;SDS011;65929;49.062;10.338;2023-05-10T04:41:15;1.85;;;1.48;;
76995;SDS011;65929;49.062;10.338;2023-05-10T04:42:15;1.58;;;1.48;;
76995;SDS011;65929;49.062;10.338;2023-05-10T04:43:16;3.10;;;1.30;;
76995;SDS011;65929;49.062;10.338;2023-05-10T04:44:17;3.03;;;1.30;;
76995;SDS011;65929;49.062;10.338;2023-05-10T04:45:18;1.90;;;1.65;;
76995;SDS011;65929;49.062;10.338;2023-05-10T04:46:22;1.83;;;1.50;;
76995;SDS011;65929;49.062;10.338;2023-05-10T04:47:23;2.10;;;1.23;;
76995;SDS011;65929;49.062;10.338;2023-05-10T04:48:24;1.73;;;1.55;;
76995;SDS011;65929;49.062;10.338;2023-05-10T04:49:25;1.77;;;1.45;;
76995;SDS011;65929;49.062;10.338;2023-05-10T04:50:26;1.92;;;1.33;;
76995;SDS011;65929;49.062;10.338;2023-05-10T04:51:27;1.73;;;1.25;;
76995;SDS011;65929;49.062;10.338;2023-05-10T04:52:28;2.88;;;1.60;;
76995;SDS011;65929;49.062;10.338;2023-05-10T04:53:30;2.40;;;1.42;;
76995;SDS011;65929;49.062;10.338;2023-05-10T04:54:31;1.85;;;1.42;;
76995;SDS011;65929;49.062;10.338;2023-05-10T04:55:32;2.38;;;1.50;;
76995;SDS011;65929;49.062;10.338;2023-05-10T04:56:33;1.60;;;1.10;;
76995;SDS011;65929;49.062;10.338;2023-05-10T04:57:34;2.83;;;1.40;;
76995;SDS011;65929;49.062;10.338;2023-05-10T04:58:35;1.88;;;1.30;;
76995;SDS011;65929;49.062;10.338;2023-05-10T04:59:36;1.50;;;1.30;;
76995;SDS011;65929;49.062;10.338;2023-05-10T05:00:37;1.55;;;1.30;;
76995;SDS011;65929;49.062;10.338;2023-05-10T05:01:39;9.48;;;2.20;;
76995;SDS011;65929;49.062;10.338;2023-05-10T05:02:41;1.27;;;1.13;;
76995;SDS011;65929;49.062;10.338;2023-05-10T05:03:43;1.88;;;1.27;;
76995;SDS011;65929;49.062;10.338;2023-05-10T05:04:44;1.77;;;1.50;;
76995;SDS011;65929;49.062;10.338;2023-05-10T05:05:45;1.83;;;1.48;;
76995;SDS011;65929;49.062;10.338;2023-05-10T05:06:46;2.20;;;1.67;;
76995;SDS011;65929;49.062;10.338;2023-05-10T05:07:47;2.08;;;1.50;;
76995;SDS011;65929;49.062;10.338;2023-05-10T05:08:49;1.70;;;1.38;;
76995;SDS011;65929;49.062;10.338;2023-05-10T05:09:50;2.65;;;1.55;;
76995;SDS011;65929;49.062;10.338;2023-05-10T05:10:51;2.30;;;1.50;;
76995;SDS011;65929;49.062;10.338;2023-05-10T05:11:52;1.80;;;1.38;;
76995;SDS011;65929;49.062;10.338;2023-05-10T05:12:53;3.47;;;1.60;;
76995;SDS011;65929;49.062;10.338;2023-05-10T05:13:54;1.58;;;1.40;;
76995;SDS011;65929;49.062;10.338;2023-05-10T05:14:55;2.47;;;1.83;;
76995;SDS011;65929;49.062;10.338;2023-05-10T05:15:56;3.20;;;1.83;;
76995;SDS011;65929;49.062;10.338;2023-05-10T05:17:00;1.75;;;1.60;;
76995;SDS011;65929;49.062;10.338;2023-05-10T05:18:01;1.67;;;1.33;;
76995;SDS011;65929;49.062;10.338;2023-05-10T05:19:02;2.20;;;1.60;;
76995;SDS011;65929;49.062;10.338;2023-05-10T05:20:04;2.15;;;1.80;;
76995;SDS011;65929;49.062;10.338;2023-05-10T05:21:13;3.42;;;1.80;;
76995;SDS011;65929;49.062;10.338;2023-05-10T05:22:15;1.88;;;1.48;;
76995;SDS011;65929;49.062;10.338;2023-05-10T05:23:16;2.00;;;1.67;;
76995;SDS011;65929;49.062;10.338;2023-05-10T05:24:18;2.35;;;2.03;;
76995;SDS011;65929;49.062;10.338;2023-05-10T05:25:19;2.25;;;1.60;;
76995;SDS011;65929;49.062;10.338;2023-05-10T05:26:20;2.05;;;1.50;;
76995;SDS011;65929;49.062;10.338;2023-05-10T05:27:21;3.03;;;1.80;;
76995;SDS011;65929;49.062;10.338;2023-05-10T05:28:24;2.63;;;1.67;;
76995;SDS011;65929;49.062;10.338;2023-05-10T05:29:25;2.17;;;1.40;;
76995;SDS011;65929;49.062;10.338;2023-05-10T05:30:26;2.10;;;1.77;;
76995;SDS011;65929;49.062;10.338;2023-05-10T05:31:27;1.98;;;1.70;;
76995;SDS011;65929;49.062;10.338;2023-05-10T05:32:28;3.33;;;2.17;;
76995;SDS011;65929;49.062;10.338;2023-05-10T05:33:29;2.08;;;1.65;;
76995;SDS011;65929;49.062;10.338;2023-05-10T05:34:30;1.85;;;1.45;;
76995;SDS011;65929;49.062;10.338;2023-05-10T05:35:30;2.10;;;1.90;;
76995;SDS011;65929;49.062;10.338;2023-05-10T05:36:32;2.50;;;1.80;;
76995;SDS011;65929;49.062;10.338;2023-05-10T05:37:36;1.85;;;1.55;;
76995;SDS011;65929;49.062;10.338;2023-05-10T05:38:37;3.05;;;1.30;;
76995;SDS011;65929;49.062;10.338;2023-05-10T05:39:39;2.10;;;1.85;;
76995;SDS011;65929;49.062;10.338;2023-05-10T05:40:40;2.28;;;2.00;;
76995;SDS011;65929;49.062;10.338;2023-05-10T05:41:41;2.40;;;2.00;;
76995;SDS011;65929;49.062;10.338;2023-05-10T05:42:42;3.85;;;2.03;;
76995;SDS011;65929;49.062;10.338;2023-05-10T05:43:43;2.35;;;1.92;;
76995;SDS011;65929;49.062;10.338;2023-05-10T05:44:44;2.88;;;1.88;;
76995;SDS011;65929;49.062;10.338;2023-05-10T05:45:45;3.08;;;1.90;;
76995;SDS011;65929;49.062;10.338;2023-05-10T05:46:46;2.45;;;1.85;;
76995;SDS011;65929;49.062;10.338;2023-05-10T05:47:47;3.30;;;2.28;;
76995;SDS011;65929;49.062;10.338;2023-05-10T05:48:48;3.10;;;2.20;;
76995;SDS011;65929;49.062;10.338;2023-05-10T05:49:50;2.25;;;1.83;;
76995;SDS011;65929;49.062;10.338;2023-05-10T05:50:53;2.70;;;2.17;;
76995;SDS011;65929;49.062;10.338;2023-05-10T05:51:58;3.53;;;2.10;;
76995;SDS011;65929;49.062;10.338;2023-05-10T05:52:59;2.22;;;1.80;;
76995;SDS011;65929;49.062;10.338;2023-05-10T05:54:00;2.97;;;1.65;;
76995;SDS011;65929;49.062;10.338;2023-05-10T05:55:02;2.50;;;1.65;;
76995;SDS011;65929;49.062;10.338;2023-05-10T05:56:04;2.53;;;1.98;;
76995;SDS011;65929;49.062;10.338;2023-05-10T05:57:05;2.53;;;1.83;;
76995;SDS011;65929;49.062;10.338;2023-05-10T05:58:06;2.55;;;1.83;;
76995;SDS011;65929;49.062;10.338;2023-05-10T05:59:07;2.47;;;1.90;;
76995;SDS011;65929;49.062;10.338;2023-05-10T06:00:08;2.88;;;2.10;;
76995;SDS011;65929;49.062;10.338;2023-05-10T06:01:10;6.03;;;2.17;;
76995;SDS011;65929;49.062;10.338;2023-05-10T06:02:11;2.72;;;1.92;;
76995;SDS011;65929;49.062;10.338;2023-05-10T06:03:12;3.22;;;2.30;;
76995;SDS011;65929;49.062;10.338;2023-05-10T06:04:13;3.53;;;1.98;;
76995;SDS011;65929;49.062;10.338;2023-05-10T06:05:14;2.38;;;1.90;;
76995;SDS011;65929;49.062;10.338;2023-05-10T06:06:15;2.40;;;1.88;;
76995;SDS011;65929;49.062;10.338;2023-05-10T06:07:16;2.38;;;2.13;;
76995;SDS011;65929;49.062;10.338;2023-05-10T06:08:17;3.28;;;2.60;;
76995;SDS011;65929;49.062;10.338;2023-05-10T06:09:18;3.53;;;2.60;;
76995;SDS011;65929;49.062;10.338;2023-05-10T06:10:20;3.00;;;2.20;;
76995;SDS011;65929;49.062;10.338;2023-05-10T06:11:22;3.20;;;2.28;;
76995;SDS011;65929;49.062;10.338;2023-05-10T06:12:24;3.55;;;1.98;;
76995;SDS011;65929;49.062;10.338;2023-05-10T06:13:25;3.70;;;2.30;;
76995;SDS011;65929;49.062;10.338;2023-05-10T06:14:32;3.03;;;2.10;;
76995;SDS011;65929;49.062;10.338;2023-05-10T06:15:32;2.80;;;2.20;;
76995;SDS011;65929;49.062;10.338;2023-05-10T06:16:33;3.05;;;2.20;;
76995;SDS011;65929;49.062;10.338;2023-05-10T06:17:34;2.65;;;2.20;;
76995;SDS011;65929;49.062;10.338;2023-05-10T06:18:35;2.83;;;2.30;;
76995;SDS011;65929;49.062;10.338;2023-05-10T06:19:36;2.38;;;1.88;;
76995;SDS011;65929;49.062;10.338;2023-05-10T06:20:37;3.70;;;2.17;;
76995;SDS011;65929;49.062;10.338;2023-05-10T06:21:38;2.60;;;2.15;;